createdAt,value
2019-02-22T00:00:08.597Z,8.87
2019-02-22T00:02:40.272Z,8.83
2019-02-22T00:05:10.079Z,8.87
2019-02-22T00:07:40.914Z,8.82
2019-02-22T00:10:11.001Z,8.74
2019-02-22T00:12:41.355Z,8.77
2019-02-22T00:15:12.644Z,8.76
2019-02-22T00:17:43.841Z,8.76
2019-02-22T00:20:15.214Z,8.69
2019-02-22T00:22:45.110Z,8.66
2019-02-22T00:25:15.531Z,8.72
2019-02-22T00:27:46.104Z,8.76
2019-02-22T00:30:17.477Z,8.79
2019-02-22T00:32:47.919Z,8.80
2019-02-22T00:35:19.451Z,8.81
2019-02-22T00:37:49.250Z,8.77
2019-02-22T00:40:22.510Z,8.77
2019-02-22T00:42:52.247Z,8.74
2019-02-22T00:45:23.028Z,8.77
2019-02-22T00:47:54.453Z,8.76
2019-02-22T00:50:25.240Z,8.73
2019-02-22T00:52:58.369Z,8.71
2019-02-22T00:55:28.842Z,8.68
2019-02-22T00:57:58.839Z,8.65
2019-02-22T01:00:30.195Z,8.58
2019-02-22T01:03:00.566Z,8.62
2019-02-22T01:05:30.286Z,8.59
2019-02-22T01:07:59.963Z,8.63
2019-02-22T01:10:31.637Z,8.60
2019-02-22T01:13:02.447Z,8.56
2019-02-22T01:15:33.232Z,8.67
2019-02-22T01:18:02.067Z,8.74
2019-02-22T01:20:33.423Z,8.73
2019-02-22T01:23:04.177Z,8.76
2019-02-22T01:25:35.558Z,8.84
2019-02-22T01:28:06.318Z,8.84
2019-02-22T01:30:36.750Z,8.88
2019-02-22T01:33:08.521Z,8.93
2019-02-22T01:35:39.124Z,8.89
2019-02-22T01:38:08.794Z,8.88
2019-02-22T01:40:43.582Z,8.84
2019-02-22T01:43:11.459Z,8.89
2019-02-22T01:45:41.453Z,8.96
2019-02-22T01:48:11.071Z,8.93
2019-02-22T01:50:42.414Z,8.93
2019-02-22T01:53:12.270Z,8.93
2019-02-22T01:55:42.740Z,8.98
2019-02-22T01:58:16.019Z,9.04
2019-02-22T02:00:46.630Z,9.03
2019-02-22T02:03:16.446Z,9.05
2019-02-22T02:05:46.357Z,9.09
2019-02-22T02:08:17.674Z,9.14
2019-02-22T02:10:54.175Z,9.18
2019-02-22T02:13:21.140Z,9.22
2019-02-22T02:15:49.421Z,9.27
2019-02-22T02:18:18.467Z,9.32
2019-02-22T02:20:49.301Z,9.36
2019-02-22T02:23:19.645Z,9.37
2019-02-22T02:25:54.417Z,9.33
2019-02-22T02:28:26.538Z,9.35
2019-02-22T02:30:57.911Z,9.38
2019-02-22T02:33:29.327Z,9.43
2019-02-22T02:35:59.891Z,9.47
2019-02-22T02:38:31.270Z,9.46
2019-02-22T02:41:10.013Z,9.44
2019-02-22T02:43:35.121Z,9.43
2019-02-22T02:46:12.749Z,9.40
2019-02-22T02:48:43.167Z,9.43
2019-02-22T02:51:12.722Z,9.49
2019-02-22T02:53:44.874Z,9.45
2019-02-22T02:56:16.079Z,9.39
2019-02-22T02:58:47.326Z,9.39
2019-02-22T03:01:18.121Z,9.40
2019-02-22T03:03:48.883Z,9.34
2019-02-22T03:06:27.277Z,9.30
2019-02-22T03:08:57.940Z,9.20
2019-02-22T03:11:27.552Z,9.16
2019-02-22T03:13:58.421Z,9.19
2019-02-22T03:16:28.032Z,9.19
2019-02-22T03:18:57.911Z,9.18
2019-02-22T03:21:28.295Z,9.17
2019-02-22T03:23:58.997Z,9.15
2019-02-22T03:26:30.291Z,9.06
2019-02-22T03:28:59.998Z,8.98
2019-02-22T03:31:30.393Z,9.02
2019-02-22T03:34:00.139Z,9.01
2019-02-22T03:36:29.794Z,9.04
2019-02-22T03:39:01.043Z,9.01
2019-02-22T03:41:33.533Z,9.02
2019-02-22T03:44:11.093Z,9.00
2019-02-22T03:46:42.346Z,9.01
2019-02-22T03:49:13.762Z,8.97
2019-02-22T03:51:42.871Z,8.89
2019-02-22T03:54:13.156Z,8.82
2019-02-22T03:56:46.454Z,8.77
2019-02-22T03:59:16.862Z,8.73
2019-02-22T04:01:48.785Z,8.73
2019-02-22T04:04:25.554Z,8.76
2019-02-22T04:06:56.005Z,8.81
2019-02-22T04:09:26.401Z,8.84
2019-02-22T04:11:58.470Z,8.88
2019-02-22T04:14:28.903Z,8.84
2019-02-22T04:17:00.336Z,8.81
2019-02-22T04:19:32.626Z,8.77
2019-02-22T04:22:02.477Z,8.77
2019-02-22T04:24:33.089Z,8.84
2019-02-22T04:27:02.696Z,8.80
2019-02-22T04:29:33.953Z,8.80
2019-02-22T04:32:05.263Z,8.85
2019-02-22T04:34:35.862Z,8.74
2019-02-22T04:37:07.188Z,8.75
2019-02-22T04:39:38.467Z,8.66
2019-02-22T04:42:09.112Z,8.67
2019-02-22T04:44:38.672Z,8.71
2019-02-22T04:47:09.459Z,8.75
2019-02-22T04:49:40.048Z,8.74
2019-02-22T04:52:12.945Z,8.81
2019-02-22T04:54:42.937Z,8.79
2019-02-22T04:57:14.231Z,8.83
2019-02-22T04:59:47.313Z,8.84
2019-02-22T05:02:18.639Z,8.87
2019-02-22T05:04:52.157Z,8.86
2019-02-22T05:07:23.471Z,8.89
2019-02-22T05:09:55.138Z,8.94
2019-02-22T05:12:24.965Z,8.97
2019-02-22T05:14:53.551Z,8.99
2019-02-22T05:17:24.979Z,8.94
2019-02-22T05:19:54.644Z,8.96
2019-02-22T05:22:24.697Z,9.01
2019-02-22T05:24:56.018Z,9.07
2019-02-22T05:27:26.449Z,9.02
2019-02-22T05:29:57.773Z,9.05
2019-02-22T05:32:28.657Z,9.11
2019-02-22T05:34:58.680Z,9.09
2019-02-22T05:37:29.936Z,9.05
2019-02-22T05:39:59.747Z,9.09
2019-02-22T05:42:30.223Z,9.04
2019-02-22T05:45:01.029Z,9.08
2019-02-22T05:47:33.395Z,9.08
2019-02-22T05:50:08.486Z,9.07
2019-02-22T05:52:38.816Z,9.08
2019-02-22T05:55:10.695Z,9.13
2019-02-22T05:57:41.999Z,9.11
2019-02-22T06:00:12.762Z,9.09
2019-02-22T06:02:44.914Z,9.10
2019-02-22T06:05:15.583Z,9.12
2019-02-22T06:07:48.919Z,9.16
2019-02-22T06:10:18.019Z,9.21
2019-02-22T06:12:47.649Z,9.26
2019-02-22T06:15:16.162Z,9.21
2019-02-22T06:17:47.327Z,9.18
2019-02-22T06:20:17.951Z,9.20
2019-02-22T06:22:48.109Z,9.22
2019-02-22T06:25:17.804Z,9.28
2019-02-22T06:27:48.199Z,9.31
2019-02-22T06:30:20.499Z,9.43
2019-02-22T06:32:50.549Z,9.47
2019-02-22T06:35:19.583Z,9.47
2019-02-22T06:37:50.959Z,9.45
2019-02-22T06:40:20.632Z,9.39
2019-02-22T06:42:49.734Z,9.42
2019-02-22T06:45:18.283Z,9.32
2019-02-22T06:47:46.593Z,9.30
2019-02-22T06:50:16.365Z,9.26
2019-02-22T06:52:46.733Z,9.23
2019-02-22T06:55:20.270Z,9.31
2019-02-22T06:57:51.534Z,9.35
2019-02-22T07:00:20.575Z,9.36
2019-02-22T07:02:49.668Z,9.33
2019-02-22T07:05:20.018Z,9.33
2019-02-22T07:07:51.380Z,9.36
2019-02-22T07:10:23.342Z,9.41
2019-02-22T07:12:59.183Z,9.40
2019-02-22T07:15:30.369Z,9.45
2019-02-22T07:18:00.244Z,9.41
2019-02-22T07:20:30.627Z,9.45
2019-02-22T07:22:59.154Z,9.44
2019-02-22T07:25:28.221Z,9.53
2019-02-22T07:27:57.316Z,9.55
2019-02-22T07:30:28.659Z,9.59
2019-02-22T07:32:59.095Z,9.60
2019-02-22T07:35:29.020Z,9.69
2019-02-22T07:37:59.822Z,9.69
2019-02-22T07:40:29.632Z,10.03
2019-02-22T07:43:07.730Z,10.12
2019-02-22T07:45:34.641Z,10.47
2019-02-22T07:50:41.585Z,10.60
2019-02-22T07:53:12.474Z,10.61
2019-02-22T07:55:43.600Z,10.39
2019-02-22T07:58:13.969Z,10.27
2019-02-22T08:00:43.760Z,10.29
2019-02-22T08:03:17.380Z,10.33
2019-02-22T08:05:46.486Z,10.38
2019-02-22T08:08:15.183Z,10.46
2019-02-22T08:10:43.447Z,10.50
2019-02-22T08:13:19.792Z,10.48
2019-02-22T08:15:48.619Z,10.57
2019-02-22T08:18:21.592Z,10.58
2019-02-22T08:20:52.032Z,10.72
2019-02-22T08:23:23.446Z,10.92
2019-02-22T08:25:54.256Z,11.27
2019-02-22T08:28:23.248Z,11.70
2019-02-22T08:30:54.640Z,12.16
2019-02-22T08:33:24.292Z,12.33
2019-02-22T08:35:56.201Z,12.08
2019-02-22T08:38:27.568Z,11.64
2019-02-22T08:40:57.194Z,11.44
2019-02-22T08:43:31.454Z,11.26
2019-02-22T08:46:00.590Z,11.35
2019-02-22T08:48:31.892Z,11.61
2019-02-22T08:53:37.682Z,11.51
2019-02-22T08:56:14.255Z,11.67
2019-02-22T08:58:44.842Z,11.66
2019-02-22T09:03:51.096Z,11.82
2019-02-22T09:06:22.703Z,11.85
2019-02-22T09:08:52.688Z,11.62
2019-02-22T09:11:23.116Z,11.39
2019-02-22T09:13:52.174Z,11.38
2019-02-22T09:16:21.287Z,11.34
2019-02-22T09:18:52.695Z,11.20
2019-02-22T09:23:58.767Z,11.68
2019-02-22T09:26:28.415Z,11.78
2019-02-22T09:28:59.834Z,11.74
2019-02-22T09:31:30.497Z,11.90
2019-02-22T09:36:36.495Z,11.97
2019-02-22T09:39:07.603Z,11.64
2019-02-22T09:41:37.497Z,11.83
2019-02-22T09:44:08.883Z,11.97
2019-02-22T09:46:42.228Z,12.06
2019-02-22T09:49:12.230Z,12.36
2019-02-22T09:54:17.387Z,12.13
2019-02-22T09:56:50.939Z,11.99
2019-02-22T09:59:21.557Z,12.13
2019-02-22T10:01:53.022Z,12.00
2019-02-22T10:04:23.891Z,12.21
2019-02-22T10:06:54.740Z,12.54
2019-02-22T10:09:23.814Z,12.63
2019-02-22T10:11:52.879Z,12.52
2019-02-22T10:14:23.598Z,12.52
2019-02-22T10:16:54.256Z,12.38
2019-02-22T10:19:25.599Z,12.47
2019-02-22T10:21:57.637Z,12.18
2019-02-22T10:24:27.445Z,12.16
2019-02-22T10:26:57.477Z,12.22
2019-02-22T10:29:30.670Z,12.04
2019-02-22T10:32:01.557Z,12.14
2019-02-22T10:34:33.870Z,12.18
2019-02-22T10:39:39.379Z,12.45
2019-02-22T10:42:14.444Z,12.52
2019-02-22T10:44:45.775Z,12.52
2019-02-22T10:47:17.065Z,12.51
2019-02-22T10:49:48.430Z,12.73
2019-02-22T10:52:20.371Z,12.98
2019-02-22T10:54:50.662Z,13.09
2019-02-22T10:57:21.464Z,13.64
2019-02-22T10:59:51.135Z,13.83
2019-02-22T11:02:26.417Z,13.80
2019-02-22T11:04:56.268Z,13.77
2019-02-22T11:07:26.287Z,13.56
2019-02-22T11:09:56.699Z,13.34
2019-02-22T11:12:28.113Z,13.24
2019-02-22T11:14:59.341Z,13.32
2019-02-22T11:17:30.771Z,13.21
2019-02-22T11:20:01.149Z,13.34
2019-02-22T11:22:31.453Z,13.13
2019-02-22T11:25:00.525Z,12.89
2019-02-22T11:27:31.144Z,12.87
2019-02-22T11:30:02.479Z,12.83
2019-02-22T11:32:35.787Z,12.60
2019-02-22T11:35:05.645Z,12.20
2019-02-22T11:37:36.270Z,12.24
2019-02-22T11:40:08.517Z,12.23
2019-02-22T11:42:39.165Z,12.20
2019-02-22T11:45:10.724Z,12.24
2019-02-22T11:47:43.714Z,12.32
2019-02-22T11:50:17.497Z,12.36
2019-02-22T11:52:48.371Z,12.62
2019-02-22T11:55:26.958Z,12.78
2019-02-22T11:58:00.205Z,12.98
2019-02-22T12:00:33.233Z,13.05
2019-02-22T12:05:39.700Z,13.03
2019-02-22T12:10:45.485Z,13.01
2019-02-22T12:15:49.190Z,12.51
2019-02-22T12:18:21.159Z,12.52
2019-02-22T12:20:51.257Z,12.65
2019-02-22T12:23:22.706Z,12.66
2019-02-22T12:25:52.318Z,12.79
2019-02-22T12:28:22.177Z,12.78
2019-02-22T12:30:51.023Z,12.42
2019-02-22T12:33:21.093Z,12.28
2019-02-22T12:35:52.463Z,12.44
2019-02-22T12:38:23.852Z,12.63
2019-02-22T12:40:54.239Z,12.63
2019-02-22T12:43:24.673Z,12.72
2019-02-22T12:45:55.461Z,12.90
2019-02-22T12:48:29.409Z,13.09
2019-02-22T12:50:59.277Z,13.14
2019-02-22T12:53:29.138Z,12.95
2019-02-22T12:55:58.174Z,12.90
2019-02-22T12:58:28.619Z,13.07
2019-02-22T13:00:58.242Z,13.25
2019-02-22T13:03:28.587Z,13.26
2019-02-22T13:06:01.263Z,13.08
2019-02-22T13:08:32.121Z,13.18
2019-02-22T13:11:01.959Z,13.44
2019-02-22T13:13:33.325Z,13.70
2019-02-22T13:18:38.276Z,14.04
2019-02-22T13:21:07.570Z,14.04
2019-02-22T13:23:38.159Z,14.29
2019-02-22T13:26:08.496Z,14.06
2019-02-22T13:28:38.990Z,13.97
2019-02-22T13:31:10.032Z,14.13
2019-02-22T13:33:42.957Z,14.32
2019-02-22T13:36:14.286Z,14.43
2019-02-22T13:38:47.597Z,14.65
2019-02-22T13:41:18.163Z,15.02
2019-02-22T13:43:48.609Z,14.65
2019-02-22T13:46:19.391Z,14.39
2019-02-22T13:48:50.394Z,14.13
2019-02-22T13:51:22.450Z,14.03
2019-02-22T13:53:54.666Z,13.93
2019-02-22T13:56:29.880Z,13.46
2019-02-22T13:58:58.760Z,13.27
2019-02-22T14:01:28.436Z,12.88
2019-02-22T14:03:57.753Z,12.83
2019-02-22T14:06:28.744Z,12.71
2019-02-22T14:08:59.606Z,12.68
2019-02-22T14:11:30.355Z,12.59
2019-02-22T14:13:59.975Z,12.16
2019-02-22T14:16:29.033Z,12.20
2019-02-22T14:19:00.399Z,12.23
2019-02-22T14:21:31.150Z,12.23
2019-02-22T14:24:02.417Z,12.19
2019-02-22T14:26:32.801Z,12.28
2019-02-22T14:31:38.960Z,12.84
2019-02-22T14:34:15.155Z,13.21
2019-02-22T14:36:44.969Z,13.12
2019-02-22T14:39:16.205Z,12.82
2019-02-22T14:41:47.406Z,13.05
2019-02-22T14:44:17.253Z,12.94
2019-02-22T14:46:47.598Z,12.60
2019-02-22T14:49:17.441Z,12.59
2019-02-22T14:51:47.265Z,12.74
2019-02-22T14:54:17.652Z,12.78
2019-02-22T14:56:48.059Z,12.63
2019-02-22T14:59:19.325Z,12.60
2019-02-22T15:01:51.357Z,12.59
2019-02-22T15:04:25.869Z,12.65
2019-02-22T15:06:56.267Z,12.69
2019-02-22T15:09:27.526Z,12.58
2019-02-22T15:11:56.854Z,12.49
2019-02-22T15:14:31.470Z,12.49
2019-02-22T15:17:04.429Z,12.33
2019-02-22T15:19:35.808Z,12.21
2019-02-22T15:22:09.363Z,12.27
2019-02-22T15:24:40.735Z,12.32
2019-02-22T15:27:11.134Z,12.32
2019-02-22T15:29:41.584Z,12.05
2019-02-22T15:32:12.882Z,11.86
2019-02-22T15:34:44.309Z,11.53
2019-02-22T15:37:15.166Z,11.50
2019-02-22T15:39:46.458Z,11.43
2019-02-22T15:42:17.805Z,11.34
2019-02-22T15:44:48.711Z,11.28
2019-02-22T15:47:20.078Z,11.16
2019-02-22T15:49:50.165Z,11.08
2019-02-22T15:52:20.858Z,10.99
2019-02-22T15:54:50.731Z,10.94
2019-02-22T15:57:22.060Z,10.86
2019-02-22T15:59:56.333Z,10.86
2019-02-22T16:02:25.863Z,10.84
2019-02-22T16:04:59.662Z,10.86
2019-02-22T16:07:29.566Z,10.90
2019-02-22T16:10:00.489Z,10.97
2019-02-22T16:12:31.313Z,10.95
2019-02-22T16:15:03.792Z,10.88
2019-02-22T16:17:33.490Z,10.73
2019-02-22T16:20:04.269Z,10.63
2019-02-22T16:22:34.333Z,10.55
2019-02-22T16:25:18.730Z,10.40
2019-02-22T16:27:40.009Z,10.35
2019-02-22T16:30:12.735Z,10.39
2019-02-22T16:32:45.070Z,10.35
2019-02-22T16:35:16.527Z,10.34
2019-02-22T16:37:46.593Z,10.26
2019-02-22T16:40:16.235Z,10.23
2019-02-22T16:42:46.898Z,10.18
2019-02-22T16:45:17.218Z,10.22
2019-02-22T16:47:47.077Z,10.23
2019-02-22T16:50:15.347Z,10.13
2019-02-22T16:52:46.125Z,10.10
2019-02-22T16:55:16.640Z,10.05
2019-02-22T16:57:48.293Z,10.05
2019-02-22T17:00:20.045Z,10.02
2019-02-22T17:02:52.947Z,10.03
2019-02-22T17:05:24.243Z,10.04
2019-02-22T17:07:55.558Z,10.05
2019-02-22T17:10:26.165Z,9.95
2019-02-22T17:12:58.572Z,9.89
2019-02-22T17:15:28.959Z,9.76
2019-02-22T17:18:00.302Z,9.69
2019-02-22T17:20:32.472Z,9.60
2019-02-22T17:23:07.919Z,9.57
2019-02-22T17:25:40.755Z,9.54
2019-02-22T17:28:14.225Z,9.54
2019-02-22T17:30:43.837Z,9.55
2019-02-22T17:33:20.460Z,9.61
2019-02-22T17:35:50.883Z,9.51
2019-02-22T17:38:20.522Z,9.38
2019-02-22T17:40:51.276Z,9.44
2019-02-22T17:43:21.939Z,9.40
2019-02-22T17:45:52.365Z,9.41
2019-02-22T17:48:23.726Z,9.34
2019-02-22T17:50:53.906Z,9.33
2019-02-22T17:53:22.980Z,9.23
2019-02-22T17:55:53.393Z,9.20
2019-02-22T17:58:24.856Z,9.16
2019-02-22T18:00:54.049Z,8.97
2019-02-22T18:03:24.454Z,8.97
2019-02-22T18:05:55.213Z,8.89
2019-02-22T18:08:26.089Z,8.77
2019-02-22T18:10:56.160Z,8.70
2019-02-22T18:13:27.518Z,8.55
2019-02-22T18:15:58.260Z,8.53
2019-02-22T18:18:30.985Z,8.47
2019-02-22T18:21:02.384Z,8.48
2019-02-22T18:23:33.164Z,8.43
2019-02-22T18:26:02.836Z,8.42
2019-02-22T18:28:36.187Z,8.41
2019-02-22T18:31:06.172Z,8.49
2019-02-22T18:33:38.146Z,8.43
2019-02-22T18:36:07.777Z,8.32
2019-02-22T18:38:37.870Z,8.29
2019-02-22T18:41:07.349Z,8.26
2019-02-22T18:43:38.193Z,8.16
2019-02-22T18:46:08.005Z,8.11
2019-02-22T18:48:37.089Z,7.99
2019-02-22T18:51:05.668Z,7.94
2019-02-22T18:53:36.978Z,7.99
2019-02-22T18:56:08.261Z,7.92
2019-02-22T18:58:39.121Z,7.89
2019-02-22T19:01:09.230Z,7.86
2019-02-22T19:03:39.823Z,7.80
2019-02-22T19:06:10.114Z,7.62
2019-02-22T19:08:39.780Z,7.62
2019-02-22T19:11:09.797Z,7.55
2019-02-22T19:13:39.644Z,7.50
2019-02-22T19:16:10.955Z,7.45
2019-02-22T19:18:42.445Z,7.32
2019-02-22T19:21:13.841Z,7.15
2019-02-22T19:23:44.018Z,6.85
2019-02-22T19:26:15.798Z,6.85
2019-02-22T19:28:47.075Z,6.75
2019-02-22T19:31:16.680Z,6.66
2019-02-22T19:33:49.763Z,6.67
2019-02-22T19:36:20.016Z,6.54
2019-02-22T19:38:49.680Z,6.29
2019-02-22T19:41:21.078Z,6.16
2019-02-22T19:43:52.290Z,6.01
2019-02-22T19:46:23.571Z,5.79
2019-02-22T19:48:53.995Z,5.69
2019-02-22T19:51:24.086Z,5.63
2019-02-22T19:53:56.852Z,5.64
2019-02-22T19:56:27.495Z,5.57
2019-02-22T19:58:59.311Z,5.60
2019-02-22T20:01:30.169Z,5.50
2019-02-22T20:04:01.200Z,5.56
2019-02-22T20:06:32.070Z,5.50
2019-02-22T20:09:01.666Z,5.55
2019-02-22T20:11:31.542Z,5.52
2019-02-22T20:14:01.549Z,5.49
2019-02-22T20:16:31.984Z,5.47
2019-02-22T20:19:05.732Z,5.36
2019-02-22T20:21:39.232Z,5.23
2019-02-22T20:24:09.045Z,5.07
2019-02-22T20:26:41.052Z,5.09
2019-02-22T20:29:12.401Z,5.14
2019-02-22T20:31:41.514Z,5.37
2019-02-22T20:34:12.110Z,5.41
2019-02-22T20:36:44.075Z,5.18
2019-02-22T20:39:15.052Z,5.07
2019-02-22T20:41:45.066Z,5.08
2019-02-22T20:44:15.871Z,5.06
2019-02-22T20:46:46.546Z,5.05
2019-02-22T20:49:15.619Z,5.04
2019-02-22T20:51:46.988Z,4.84
2019-02-22T20:54:19.606Z,4.70
2019-02-22T20:56:50.902Z,4.64
2019-02-22T20:59:21.490Z,4.66
2019-02-22T21:01:51.396Z,4.68
2019-02-22T21:04:21.832Z,4.60
2019-02-22T21:06:52.175Z,4.49
2019-02-22T21:09:23.603Z,4.33
2019-02-22T21:11:54.994Z,4.31
2019-02-22T21:14:24.845Z,4.25
2019-02-22T21:16:54.382Z,4.23
2019-02-22T21:19:25.709Z,4.21
2019-02-22T21:21:56.180Z,4.25
2019-02-22T21:24:27.503Z,4.12
2019-02-22T21:26:57.938Z,4.18
2019-02-22T21:29:27.586Z,3.88
2019-02-22T21:31:58.355Z,3.70
2019-02-22T21:34:28.770Z,3.63
2019-02-22T21:37:00.338Z,3.56
2019-02-22T21:39:32.490Z,3.62
2019-02-22T21:42:03.856Z,3.48
2019-02-22T21:44:33.834Z,3.41
2019-02-22T21:47:04.481Z,3.37
2019-02-22T21:49:35.078Z,3.38
2019-02-22T21:52:05.873Z,3.37
2019-02-22T21:54:35.687Z,3.24
2019-02-22T21:57:06.451Z,3.19
2019-02-22T21:59:37.650Z,3.12
2019-02-22T22:02:06.724Z,3.10
2019-02-22T22:04:38.131Z,3.06
2019-02-22T22:07:07.778Z,2.94
2019-02-22T22:09:39.045Z,2.93
2019-02-22T22:12:09.726Z,3.07
2019-02-22T22:14:42.928Z,3.08
2019-02-22T22:17:13.710Z,3.08
2019-02-22T22:19:44.462Z,3.03
2019-02-22T22:22:17.460Z,2.77
2019-02-22T22:24:48.892Z,2.91
2019-02-22T22:27:19.604Z,2.88
2019-02-22T22:29:50.952Z,2.88
2019-02-22T22:32:21.748Z,2.93
2019-02-22T22:34:52.235Z,2.95
2019-02-22T22:37:20.530Z,2.77
2019-02-22T22:39:51.769Z,2.69
2019-02-22T22:42:22.482Z,2.74
2019-02-22T22:44:52.340Z,2.88
2019-02-22T22:47:23.694Z,2.94
2019-02-22T22:49:54.130Z,2.93
2019-02-22T22:52:26.287Z,2.86
2019-02-22T22:54:56.672Z,2.81
2019-02-22T22:57:27.175Z,2.85
2019-02-22T22:59:58.513Z,2.80
